createdAt,value
2017-12-04T00:00:51.316Z,1017.21
2017-12-04T00:02:01.040Z,1017.19
2017-12-04T00:03:10.774Z,1017.19
2017-12-04T00:04:20.495Z,1017.11
2017-12-04T00:05:30.537Z,1017.15
2017-12-04T00:06:40.031Z,1017.12
2017-12-04T00:07:49.778Z,1017.14
2017-12-04T00:08:59.772Z,1017.1
2017-12-04T00:10:09.500Z,1017.12
2017-12-04T00:11:18.961Z,1017.1
2017-12-04T00:12:28.475Z,1017.12
2017-12-04T00:13:38.488Z,1017.14
2017-12-04T00:14:48.240Z,1017.12
2017-12-04T00:15:57.696Z,1017.14
2017-12-04T00:17:07.688Z,1017.14
2017-12-04T00:18:17.673Z,1017.2
2017-12-04T00:19:27.662Z,1017.16
2017-12-04T00:20:37.380Z,1017.13
2017-12-04T00:21:46.581Z,1017.14
2017-12-04T00:22:56.355Z,1017.12
2017-12-04T00:24:06.345Z,1017.13
2017-12-04T00:25:15.536Z,1017.14
2017-12-04T00:26:25.568Z,1017.14
2017-12-04T00:27:35.289Z,1017.16
2017-12-04T00:28:45.012Z,1017.14
2017-12-04T00:29:54.795Z,1017.19
2017-12-04T00:31:04.510Z,1017.16
2017-12-04T00:32:14.233Z,1017.18
2017-12-04T00:33:23.965Z,1017.18
2017-12-04T00:34:33.694Z,1017.21
2017-12-04T00:35:43.681Z,1017.2
2017-12-04T00:36:53.405Z,1017.16
2017-12-04T00:38:02.865Z,1017.19
2017-12-04T00:39:12.062Z,1017.15
2017-12-04T00:40:21.783Z,1017.11
2017-12-04T00:41:31.768Z,1017.12
2017-12-04T00:42:41.756Z,1017.08
2017-12-04T00:43:51.478Z,1017.06
2017-12-04T00:45:01.221Z,1017.13
2017-12-04T00:46:10.677Z,1017.15
2017-12-04T00:47:20.413Z,1017.17
2017-12-04T00:48:30.130Z,1017.2
2017-12-04T00:49:40.174Z,1017.16
2017-12-04T00:50:50.169Z,1017.21
2017-12-04T00:51:59.939Z,1017.19
2017-12-04T00:53:09.712Z,1017.18
2017-12-04T00:54:19.179Z,1017.22
2017-12-04T00:55:28.932Z,1017.17
2017-12-04T00:56:38.414Z,1017.22
2017-12-04T00:57:47.907Z,1017.18
2017-12-04T00:58:57.386Z,1017.19
2017-12-04T01:00:06.851Z,1017.19
2017-12-04T01:01:16.622Z,1017.2
2017-12-04T01:02:25.810Z,1017.2
2017-12-04T01:03:35.820Z,1017.18
2017-12-04T01:04:44.750Z,1017.16
2017-12-04T01:05:54.210Z,1017.24
2017-12-04T01:07:03.464Z,1017.17
2017-12-04T01:08:13.500Z,1017.19
2017-12-04T01:09:23.490Z,1017.2
2017-12-04T01:10:33.226Z,1017.18
2017-12-04T01:11:42.952Z,1017.24
2017-12-04T01:12:52.952Z,1017.19
2017-12-04T01:14:03.200Z,1017.2
2017-12-04T01:15:12.402Z,1017.24
2017-12-04T01:16:21.591Z,1017.25
2017-12-04T01:17:31.310Z,1017.2
2017-12-04T01:18:41.031Z,1017.31
2017-12-04T01:19:51.046Z,1017.26
2017-12-04T01:21:00.763Z,1017.28
2017-12-04T01:22:10.518Z,1017.3
2017-12-04T01:23:20.374Z,1017.28
2017-12-04T01:24:30.107Z,1017.28
2017-12-04T01:25:40.016Z,1017.35
2017-12-04T01:26:50.015Z,1017.39
2017-12-04T01:28:00.003Z,1017.34
2017-12-04T01:29:09.219Z,1017.32
2017-12-04T01:30:18.417Z,1017.35
2017-12-04T01:31:28.136Z,1017.34
2017-12-04T01:32:38.137Z,1017.35
2017-12-04T01:33:47.590Z,1017.35
2017-12-04T01:34:57.315Z,1017.37
2017-12-04T01:36:06.795Z,1017.35
2017-12-04T01:37:16.278Z,1017.37
2017-12-04T01:38:26.388Z,1017.37
2017-12-04T01:39:36.386Z,1017.38
2017-12-04T01:40:46.109Z,1017.39
2017-12-04T01:41:56.094Z,1017.53
2017-12-04T01:43:06.094Z,1017.42
2017-12-04T01:44:16.096Z,1017.5
2017-12-04T01:45:26.083Z,1017.47
2017-12-04T01:46:35.814Z,1017.5
2017-12-04T01:47:45.804Z,1017.51
2017-12-04T01:48:55.285Z,1017.59
2017-12-04T01:50:05.280Z,1017.6
2017-12-04T01:51:14.999Z,1017.58
2017-12-04T01:52:24.461Z,1017.63
2017-12-04T01:53:33.650Z,1017.59
2017-12-04T01:54:43.643Z,1017.6
2017-12-04T01:55:53.624Z,1017.57
2017-12-04T01:57:03.614Z,1017.59
2017-12-04T01:58:13.335Z,1017.62
2017-12-04T01:59:23.327Z,1017.6
2017-12-04T02:00:33.311Z,1017.61
2017-12-04T02:01:43.450Z,1017.57
2017-12-04T02:02:53.173Z,1017.58
2017-12-04T02:04:02.631Z,1017.53
2017-12-04T02:05:12.348Z,1017.61
2017-12-04T02:06:22.328Z,1017.57
2017-12-04T02:07:32.052Z,1017.6
2017-12-04T02:08:42.033Z,1017.6
2017-12-04T02:09:52.013Z,1017.61
2017-12-04T02:11:01.790Z,1017.6
2017-12-04T02:12:11.776Z,1017.59
2017-12-04T02:13:21.747Z,1017.57
2017-12-04T02:14:31.462Z,1017.57
2017-12-04T02:15:41.172Z,1017.56
2017-12-04T02:16:51.148Z,1017.53
2017-12-04T02:18:01.130Z,1017.54
2017-12-04T02:19:10.848Z,1017.57
2017-12-04T02:20:20.840Z,1017.55
2017-12-04T02:21:30.289Z,1017.58
2017-12-04T02:22:39.739Z,1017.56
2017-12-04T02:23:49.979Z,1017.52
2017-12-04T02:24:59.695Z,1017.58
2017-12-04T02:26:09.679Z,1017.58
2017-12-04T02:27:19.393Z,1017.6
2017-12-04T02:28:28.836Z,1017.66
2017-12-04T02:29:38.814Z,1017.54
2017-12-04T02:30:48.787Z,1017.52
2017-12-04T02:31:58.237Z,1017.49
2017-12-04T02:33:07.154Z,1017.48
2017-12-04T02:34:16.869Z,1017.48
2017-12-04T02:35:26.329Z,1017.46
2017-12-04T02:36:36.062Z,1017.47
2017-12-04T02:37:46.055Z,1017.48
2017-12-04T02:38:55.766Z,1017.41
2017-12-04T02:40:05.479Z,1017.41
2017-12-04T02:41:15.196Z,1017.42
2017-12-04T02:42:24.939Z,1017.46
2017-12-04T02:43:34.920Z,1017.43
2017-12-04T02:44:44.373Z,1017.45
2017-12-04T02:45:53.818Z,1017.43
2017-12-04T02:47:03.531Z,1017.49
2017-12-04T02:48:13.247Z,1017.44
2017-12-04T02:49:23.228Z,1017.38
2017-12-04T02:50:33.210Z,1017.34
2017-12-04T02:51:42.928Z,1017.37
2017-12-04T02:52:52.921Z,1017.43
2017-12-04T02:54:02.646Z,1017.39
2017-12-04T02:55:12.362Z,1017.39
2017-12-04T02:56:22.377Z,1017.35
2017-12-04T02:57:32.088Z,1017.37
2017-12-04T02:58:42.072Z,1017.4
2017-12-04T02:59:51.778Z,1017.34
2017-12-04T03:01:01.757Z,1017.41
2017-12-04T03:02:11.479Z,1017.36
2017-12-04T03:03:21.442Z,1017.32
2017-12-04T03:04:31.195Z,1017.37
2017-12-04T03:05:41.172Z,1017.29
2017-12-04T03:06:51.147Z,1017.3
2017-12-04T03:08:01.429Z,1017.35
2017-12-04T03:09:11.414Z,1017.29
2017-12-04T03:10:21.203Z,1017.31
2017-12-04T03:11:31.181Z,1017.35
2017-12-04T03:12:41.160Z,1017.42
2017-12-04T03:13:51.143Z,1017.37
2017-12-04T03:15:00.865Z,1017.46
2017-12-04T03:16:10.311Z,1017.52
2017-12-04T03:17:19.763Z,1017.44
2017-12-04T03:18:29.482Z,1017.48
2017-12-04T03:19:38.925Z,1017.52
2017-12-04T03:20:48.634Z,1017.51
2017-12-04T03:21:58.351Z,1017.6
2017-12-04T03:23:08.339Z,1017.57
2017-12-04T03:24:18.301Z,1017.6
2017-12-04T03:25:28.071Z,1017.57
2017-12-04T03:26:38.090Z,1017.56
2017-12-04T03:27:47.808Z,1017.61
2017-12-04T03:28:57.766Z,1017.62
2017-12-04T03:30:07.492Z,1017.65
2017-12-04T03:31:16.941Z,1017.6
2017-12-04T03:32:26.418Z,1017.5
2017-12-04T03:33:36.133Z,1017.51
2017-12-04T03:34:45.580Z,1017.54
2017-12-04T03:35:55.295Z,1017.51
2017-12-04T03:37:05.280Z,1017.53
2017-12-04T03:38:14.726Z,1017.56
2017-12-04T03:39:24.438Z,1017.61
2017-12-04T03:40:33.901Z,1017.47
2017-12-04T03:41:43.876Z,1017.56
2017-12-04T03:42:53.590Z,1017.59
2017-12-04T03:44:03.566Z,1017.53
2017-12-04T03:45:13.067Z,1017.54
2017-12-04T03:46:22.522Z,1017.61
2017-12-04T03:47:32.510Z,1017.54
2017-12-04T03:48:41.959Z,1017.54
2017-12-04T03:49:52.923Z,1017.54
2017-12-04T03:51:02.108Z,1017.61
2017-12-04T03:52:11.552Z,1017.54
2017-12-04T03:53:21.532Z,1017.62
2017-12-04T03:54:31.516Z,1017.54
2017-12-04T03:55:41.499Z,1017.53
2017-12-04T03:56:51.497Z,1017.61
2017-12-04T03:58:01.478Z,1017.65
2017-12-04T03:59:11.458Z,1017.63
2017-12-04T04:00:21.440Z,1017.5
2017-12-04T04:01:31.206Z,1017.52
2017-12-04T04:02:40.930Z,1017.55
2017-12-04T04:03:50.644Z,1017.52
2017-12-04T04:05:00.094Z,1017.57
2017-12-04T04:06:09.810Z,1017.59
2017-12-04T04:07:19.900Z,1017.66
2017-12-04T04:08:29.352Z,1017.74
2017-12-04T04:09:39.063Z,1017.64
2017-12-04T04:10:49.045Z,1017.67
2017-12-04T04:11:58.226Z,1017.69
2017-12-04T04:13:07.944Z,1017.66
2017-12-04T04:14:17.672Z,1017.64
2017-12-04T04:15:27.646Z,1017.68
2017-12-04T04:16:37.358Z,1017.63
2017-12-04T04:17:47.071Z,1017.67
2017-12-04T04:18:57.454Z,1017.66
2017-12-04T04:20:07.617Z,1017.68
2017-12-04T04:21:17.332Z,1017.66
2017-12-04T04:22:27.323Z,1017.63
2017-12-04T04:23:36.767Z,1017.59
2017-12-04T04:24:46.481Z,1017.63
2017-12-04T04:25:56.462Z,1017.62
2017-12-04T04:27:06.230Z,1017.6
2017-12-04T04:28:16.092Z,1017.54
2017-12-04T04:29:25.810Z,1017.53
2017-12-04T04:30:35.535Z,1017.56
2017-12-04T04:31:45.241Z,1017.57
2017-12-04T04:32:54.956Z,1017.54
2017-12-04T04:34:04.948Z,1017.55
2017-12-04T04:35:13.874Z,1017.61
2017-12-04T04:36:23.851Z,1017.58
2017-12-04T04:37:33.829Z,1017.63
2017-12-04T04:38:43.289Z,1017.64
2017-12-04T04:39:53.266Z,1017.64
2017-12-04T04:41:03.250Z,1017.67
2017-12-04T04:42:13.228Z,1017.63
2017-12-04T04:43:23.219Z,1017.65
2017-12-04T04:44:33.204Z,1017.62
2017-12-04T04:45:43.193Z,1017.62
2017-12-04T04:46:53.184Z,1017.56
2017-12-04T04:48:03.173Z,1017.56
2017-12-04T04:49:13.186Z,1017.58
2017-12-04T04:50:23.161Z,1017.62
2017-12-04T04:51:32.875Z,1017.59
2017-12-04T04:52:42.333Z,1017.64
2017-12-04T04:53:51.844Z,1017.63
2017-12-04T04:55:01.828Z,1017.56
2017-12-04T04:56:11.828Z,1017.68
2017-12-04T04:57:21.813Z,1017.6
2017-12-04T04:58:31.535Z,1017.63
2017-12-04T04:59:41.547Z,1017.64
2017-12-04T05:00:51.273Z,1017.59
2017-12-04T05:02:01.257Z,1017.66
2017-12-04T05:03:11.233Z,1017.65
2017-12-04T05:04:21.213Z,1017.64
2017-12-04T05:05:30.914Z,1017.62
2017-12-04T05:06:40.631Z,1017.67
2017-12-04T05:07:50.607Z,1017.66
2017-12-04T05:09:00.057Z,1017.67
2017-12-04T05:10:09.829Z,1017.7
2017-12-04T05:11:19.809Z,1017.68
2017-12-04T05:12:29.255Z,1017.64
2017-12-04T05:13:38.975Z,1017.67
2017-12-04T05:14:48.956Z,1017.64
2017-12-04T05:15:58.945Z,1017.67
2017-12-04T05:17:08.664Z,1017.7
2017-12-04T05:18:18.644Z,1017.72
2017-12-04T05:19:28.629Z,1017.82
2017-12-04T05:20:38.345Z,1017.78
2017-12-04T05:21:48.352Z,1017.8
2017-12-04T05:22:58.329Z,1017.79
2017-12-04T05:24:08.308Z,1017.88
2017-12-04T05:25:18.025Z,1017.78
2017-12-04T05:26:28.015Z,1017.71
2017-12-04T05:27:37.735Z,1017.72
2017-12-04T05:28:47.435Z,1017.76
2017-12-04T05:29:57.149Z,1017.77
2017-12-04T05:31:07.189Z,1017.77
2017-12-04T05:32:16.375Z,1017.78
2017-12-04T05:33:26.356Z,1017.81
2017-12-04T05:34:36.260Z,1017.77
2017-12-04T05:35:45.670Z,1017.78
2017-12-04T05:36:55.647Z,1017.78
2017-12-04T05:38:05.358Z,1017.8
2017-12-04T05:39:14.808Z,1017.77
2017-12-04T05:40:24.788Z,1017.8
2017-12-04T05:41:34.766Z,1017.83
2017-12-04T05:42:44.214Z,1017.85
2017-12-04T05:43:54.200Z,1017.9
2017-12-04T05:45:04.182Z,1017.89
2017-12-04T05:46:13.940Z,1017.9
2017-12-04T05:47:23.656Z,1017.92
2017-12-04T05:48:33.686Z,1017.91
2017-12-04T05:49:43.670Z,1017.94
2017-12-04T05:50:53.648Z,1017.92
2017-12-04T05:52:03.633Z,1018.02
2017-12-04T05:53:13.080Z,1017.95
2017-12-04T05:54:22.798Z,1017.95
2017-12-04T05:55:32.800Z,1017.98
2017-12-04T05:56:42.523Z,1018
2017-12-04T05:57:52.506Z,1017.97
2017-12-04T05:59:02.219Z,1017.99
2017-12-04T06:00:11.936Z,1017.98
2017-12-04T06:01:21.659Z,1018.01
2017-12-04T06:02:31.636Z,1018.04
2017-12-04T06:03:41.632Z,1018
2017-12-04T06:04:51.459Z,1017.99
2017-12-04T06:06:01.640Z,1018.05
2017-12-04T06:07:11.626Z,1018.03
2017-12-04T06:08:21.635Z,1018.06
2017-12-04T06:09:31.350Z,1018.12
2017-12-04T06:10:41.117Z,1018.1
2017-12-04T06:11:50.833Z,1018
2017-12-04T06:13:00.306Z,1018.01
2017-12-04T06:14:10.290Z,1017.98
2017-12-04T06:15:20.007Z,1017.98
2017-12-04T06:16:29.718Z,1018.01
2017-12-04T06:17:39.694Z,1018
2017-12-04T06:18:49.717Z,1017.96
2017-12-04T06:19:59.560Z,1017.92
2017-12-04T06:21:09.390Z,1017.96
2017-12-04T06:22:19.251Z,1018.01
2017-12-04T06:23:28.833Z,1018.06
2017-12-04T06:24:38.413Z,1018.04
2017-12-04T06:25:48.132Z,1018.13
2017-12-04T06:26:57.581Z,1018.06
2017-12-04T06:28:07.298Z,1018.09
2017-12-04T06:29:17.012Z,1018.08
2017-12-04T06:30:26.729Z,1018.14
2017-12-04T06:31:36.706Z,1018.08
2017-12-04T06:32:46.420Z,1018.11
2017-12-04T06:33:56.418Z,1018.09
2017-12-04T06:35:06.428Z,1018.21
2017-12-04T06:36:15.877Z,1018.2
2017-12-04T06:37:25.866Z,1018.14
2017-12-04T06:38:35.049Z,1018.13
2017-12-04T06:39:44.775Z,1018.17
2017-12-04T06:40:54.489Z,1018.29
2017-12-04T06:42:03.953Z,1018.26
2017-12-04T06:43:13.878Z,1018.23
2017-12-04T06:44:24.128Z,1018.34
2017-12-04T06:45:33.690Z,1018.36
2017-12-04T06:46:43.411Z,1018.37
2017-12-04T06:47:53.148Z,1018.4
2017-12-04T06:49:03.238Z,1018.38
2017-12-04T06:50:13.210Z,1018.37
2017-12-04T06:51:22.937Z,1018.31
2017-12-04T06:52:32.927Z,1018.45
2017-12-04T06:53:42.433Z,1018.4
2017-12-04T06:54:52.411Z,1018.35
2017-12-04T06:56:02.129Z,1018.39
2017-12-04T06:57:11.849Z,1018.34
2017-12-04T06:58:21.558Z,1018.4
2017-12-04T06:59:31.281Z,1018.45
2017-12-04T07:00:41.035Z,1018.42
2017-12-04T07:01:50.781Z,1018.43
2017-12-04T07:03:00.771Z,1018.51
2017-12-04T07:04:10.763Z,1018.55
2017-12-04T07:05:20.758Z,1018.57
2017-12-04T07:06:31.014Z,1018.6
2017-12-04T07:07:40.999Z,1018.67
2017-12-04T07:08:50.456Z,1018.7
2017-12-04T07:09:59.643Z,1018.72
2017-12-04T07:11:09.458Z,1018.71
2017-12-04T07:12:18.979Z,1018.67
2017-12-04T07:13:28.999Z,1018.8
2017-12-04T07:14:38.761Z,1018.68
2017-12-04T07:15:48.474Z,1018.77
2017-12-04T07:16:57.947Z,1018.84
2017-12-04T07:18:07.949Z,1018.78
2017-12-04T07:19:17.662Z,1018.86
2017-12-04T07:20:27.371Z,1018.85
2017-12-04T07:21:37.081Z,1018.85
2017-12-04T07:22:47.064Z,1018.83
2017-12-04T07:23:57.048Z,1018.79
2017-12-04T07:25:06.765Z,1018.77
2017-12-04T07:26:15.953Z,1018.81
2017-12-04T07:27:25.403Z,1018.82
2017-12-04T07:28:34.586Z,1018.8
2017-12-04T07:29:44.307Z,1018.83
2017-12-04T07:30:54.031Z,1018.8
2017-12-04T07:32:03.666Z,1018.81
2017-12-04T07:33:13.138Z,1018.86
2017-12-04T07:34:22.861Z,1018.89
2017-12-04T07:35:32.965Z,1018.82
2017-12-04T07:36:42.684Z,1018.81
2017-12-04T07:37:52.660Z,1018.87
2017-12-04T07:39:02.638Z,1018.91
2017-12-04T07:40:11.838Z,1019.01
2017-12-04T07:41:21.559Z,1018.99
2017-12-04T07:42:31.800Z,1018.99
2017-12-04T07:43:41.783Z,1019
2017-12-04T07:44:51.764Z,1019.03
2017-12-04T07:46:01.481Z,1019.12
2017-12-04T07:47:11.204Z,1019.03
2017-12-04T07:48:21.190Z,1019.09
2017-12-04T07:49:31.232Z,1019.08
2017-12-04T07:50:41.217Z,1019.14
2017-12-04T07:51:50.944Z,1019.06
2017-12-04T07:53:00.694Z,1019.06
2017-12-04T07:54:10.678Z,1019.12
2017-12-04T07:55:20.398Z,1019.11
2017-12-04T07:56:29.591Z,1019.17
2017-12-04T07:57:39.307Z,1019.2
2017-12-04T07:58:49.031Z,1019.18
2017-12-04T07:59:58.753Z,1019.16
2017-12-04T08:01:08.472Z,1019.16
2017-12-04T08:02:18.192Z,1019.15
2017-12-04T08:03:28.174Z,1019.14
2017-12-04T08:04:38.166Z,1019.14
2017-12-04T08:05:47.353Z,1019.2
2017-12-04T08:06:57.335Z,1019.2
2017-12-04T08:08:06.787Z,1019.22
2017-12-04T08:09:16.760Z,1019.2
2017-12-04T08:10:26.474Z,1019.19
2017-12-04T08:11:36.235Z,1019.2
2017-12-04T08:12:46.012Z,1019.16
2017-12-04T08:13:55.734Z,1019.2
2017-12-04T08:15:05.443Z,1019.24
2017-12-04T08:16:15.426Z,1019.2
2017-12-04T08:17:25.474Z,1019.21
2017-12-04T08:18:35.189Z,1019.28
2017-12-04T08:19:44.940Z,1019.24
2017-12-04T08:20:54.862Z,1019.3
2017-12-04T08:22:04.621Z,1019.28
2017-12-04T08:23:14.730Z,1019.23
2017-12-04T08:24:24.440Z,1019.18
2017-12-04T08:25:33.893Z,1019.15
2017-12-04T08:26:43.961Z,1019.18
2017-12-04T08:27:53.943Z,1019.13
2017-12-04T08:29:03.425Z,1019.12
2017-12-04T08:30:13.140Z,1019.12
2017-12-04T08:31:22.861Z,1019.15
2017-12-04T08:32:32.585Z,1019.13
2017-12-04T08:33:42.562Z,1019.14
2017-12-04T08:34:52.027Z,1019.2
2017-12-04T08:36:01.758Z,1019.21
2017-12-04T08:37:11.482Z,1019.21
2017-12-04T08:38:21.471Z,1019.24
2017-12-04T08:39:31.450Z,1019.22
2017-12-04T08:40:41.175Z,1019.22
2017-12-04T08:41:50.886Z,1019.27
2017-12-04T08:43:00.872Z,1019.26
2017-12-04T08:44:10.883Z,1019.26
2017-12-04T08:45:20.673Z,1019.29
2017-12-04T08:46:30.388Z,1019.33
2017-12-04T08:47:40.100Z,1019.38
2017-12-04T08:48:50.111Z,1019.36
2017-12-04T08:50:00.112Z,1019.5
2017-12-04T08:51:09.843Z,1019.49
2017-12-04T08:52:19.297Z,1019.54
2017-12-04T08:53:29.316Z,1019.48
2017-12-04T08:54:39.311Z,1019.61
2017-12-04T08:55:49.292Z,1019.48
2017-12-04T08:56:59.019Z,1019.49
2017-12-04T08:58:08.476Z,1019.5
2017-12-04T08:59:18.199Z,1019.52
2017-12-04T09:00:27.948Z,1019.57
2017-12-04T09:01:37.405Z,1019.56
2017-12-04T09:02:46.853Z,1019.64
2017-12-04T09:03:56.584Z,1019.56
2017-12-04T09:05:06.159Z,1019.6
2017-12-04T09:06:16.513Z,1019.63
2017-12-04T09:07:25.707Z,1019.71
2017-12-04T09:08:35.685Z,1019.66
2017-12-04T09:09:44.871Z,1019.72
2017-12-04T09:10:54.437Z,1019.71
2017-12-04T09:12:04.607Z,1019.72
2017-12-04T09:13:13.792Z,1019.79
2017-12-04T09:14:23.768Z,1019.79
2017-12-04T09:15:33.481Z,1019.85
2017-12-04T09:16:43.297Z,1019.78
2017-12-04T09:17:52.743Z,1019.81
2017-12-04T09:19:02.727Z,1019.84
2017-12-04T09:20:12.722Z,1019.86
2017-12-04T09:21:22.178Z,1019.78
2017-12-04T09:22:32.162Z,1019.7
2017-12-04T09:23:41.875Z,1019.73
2017-12-04T09:24:51.328Z,1019.73
2017-12-04T09:26:01.047Z,1019.69
2017-12-04T09:27:11.028Z,1019.81
2017-12-04T09:28:20.740Z,1019.83
2017-12-04T09:29:30.451Z,1019.85
2017-12-04T09:30:40.164Z,1019.81
2017-12-04T09:31:49.923Z,1019.84
2017-12-04T09:32:59.922Z,1019.83
2017-12-04T09:34:09.450Z,1019.83
2017-12-04T09:35:19.174Z,1019.9
2017-12-04T09:36:29.154Z,1019.84
2017-12-04T09:37:38.867Z,1019.82
2017-12-04T09:38:48.586Z,1019.84
2017-12-04T09:39:58.358Z,1019.81
2017-12-04T09:41:07.543Z,1019.9
2017-12-04T09:42:17.257Z,1019.92
2017-12-04T09:43:26.755Z,1019.94
2017-12-04T09:44:36.484Z,1020.02
2017-12-04T09:45:46.469Z,1020.01
2017-12-04T09:46:55.919Z,1020.06
2017-12-04T09:48:05.907Z,1020.06
2017-12-04T09:49:15.360Z,1020.06
2017-12-04T09:50:24.825Z,1020.05
2017-12-04T09:51:34.565Z,1020.12
2017-12-04T09:52:44.548Z,1020.08
2017-12-04T09:53:54.546Z,1020.12
2017-12-04T09:55:04.533Z,1020.13
2017-12-04T09:56:14.579Z,1020.12
2017-12-04T09:57:24.563Z,1020.14
2017-12-04T09:58:33.753Z,1020.1
2017-12-04T09:59:43.598Z,1020.12
2017-12-04T10:00:52.810Z,1020.16
2017-12-04T10:02:02.564Z,1020.13
2017-12-04T10:03:12.575Z,1020.2
2017-12-04T10:04:22.292Z,1020.24
2017-12-04T10:05:32.018Z,1020.18
2017-12-04T10:06:41.740Z,1020.19
2017-12-04T10:07:51.459Z,1020.22
2017-12-04T10:09:01.797Z,1020.27
2017-12-04T10:10:11.586Z,1020.27
2017-12-04T10:11:21.041Z,1020.26
2017-12-04T10:12:30.791Z,1020.28
2017-12-04T10:13:40.297Z,1020.3
2017-12-04T10:14:50.010Z,1020.34
2017-12-04T10:15:59.525Z,1020.31
2017-12-04T10:17:09.245Z,1020.32
2017-12-04T10:18:19.241Z,1020.36
2017-12-04T10:19:28.728Z,1020.34
2017-12-04T10:20:38.492Z,1020.35
2017-12-04T10:21:47.941Z,1020.34
2017-12-04T10:22:57.393Z,1020.35
2017-12-04T10:24:07.374Z,1020.33
2017-12-04T10:25:16.564Z,1020.29
2017-12-04T10:26:26.275Z,1020.26
2017-12-04T10:27:36.254Z,1020.33
2017-12-04T10:28:45.988Z,1020.34
2017-12-04T10:29:55.973Z,1020.39
2017-12-04T10:31:05.968Z,1020.37
2017-12-04T10:32:15.960Z,1020.33
2017-12-04T10:33:25.690Z,1020.3
2017-12-04T10:34:35.433Z,1020.37
2017-12-04T10:35:45.415Z,1020.35
2017-12-04T10:36:55.129Z,1020.32
2017-12-04T10:38:05.116Z,1020.32
2017-12-04T10:39:15.100Z,1020.34
2017-12-04T10:40:25.090Z,1020.34
2017-12-04T10:41:34.805Z,1020.33
2017-12-04T10:42:44.260Z,1020.35
2017-12-04T10:43:53.974Z,1020.36
2017-12-04T10:45:03.173Z,1020.29
2017-12-04T10:46:12.906Z,1020.36
2017-12-04T10:47:22.387Z,1020.37
2017-12-04T10:48:31.841Z,1020.38
2017-12-04T10:49:41.298Z,1020.39
2017-12-04T10:50:51.143Z,1020.4
2017-12-04T10:52:00.344Z,1020.44
2017-12-04T10:53:10.078Z,1020.44
2017-12-04T10:54:19.831Z,1020.44
2017-12-04T10:55:29.589Z,1020.39
2017-12-04T10:56:39.383Z,1020.44
2017-12-04T10:57:49.117Z,1020.41
2017-12-04T10:58:59.144Z,1020.42
2017-12-04T11:00:09.290Z,1020.42
2017-12-04T11:01:19.152Z,1020.52
2017-12-04T11:02:28.386Z,1020.43
2017-12-04T11:03:38.078Z,1020.41
2017-12-04T11:04:48.079Z,1020.43
2017-12-04T11:05:57.858Z,1020.42
2017-12-04T11:07:07.315Z,1020.47
2017-12-04T11:08:17.315Z,1020.44
2017-12-04T11:09:27.857Z,1020.44
2017-12-04T11:10:37.573Z,1020.48
2017-12-04T11:11:47.556Z,1020.53
2017-12-04T11:12:57.281Z,1020.44
2017-12-04T11:14:06.482Z,1020.45
2017-12-04T11:15:16.238Z,1020.4
2017-12-04T11:16:26.365Z,1020.45
2017-12-04T11:17:35.841Z,1020.45
2017-12-04T11:18:45.591Z,1020.5
2017-12-04T11:19:55.313Z,1020.44
2017-12-04T11:21:05.050Z,1020.54
2017-12-04T11:22:14.774Z,1020.47
2017-12-04T11:23:24.488Z,1020.43
2017-12-04T11:24:34.209Z,1020.46
2017-12-04T11:25:43.666Z,1020.62
2017-12-04T11:26:53.651Z,1020.39
2017-12-04T11:28:03.664Z,1020.47
2017-12-04T11:29:13.138Z,1020.6
2017-12-04T11:30:23.127Z,1020.5
2017-12-04T11:31:33.110Z,1020.58
2017-12-04T11:32:42.086Z,1020.51
2017-12-04T11:33:51.537Z,1020.53
2017-12-04T11:35:01.263Z,1020.6
2017-12-04T11:36:11.241Z,1020.61
2017-12-04T11:37:21.224Z,1020.57
2017-12-04T11:38:31.213Z,1020.6
2017-12-04T11:39:40.955Z,1020.49
2017-12-04T11:40:50.948Z,1020.52
2017-12-04T11:42:00.664Z,1020.45
2017-12-04T11:43:10.452Z,1020.44
2017-12-04T11:44:20.725Z,1020.49
2017-12-04T11:45:30.465Z,1020.52
2017-12-04T11:46:39.916Z,1020.49
2017-12-04T11:47:49.910Z,1020.57
2017-12-04T11:48:59.385Z,1020.56
2017-12-04T11:50:09.367Z,1020.53
2017-12-04T11:51:19.079Z,1020.52
2017-12-04T11:52:28.858Z,1020.56
2017-12-04T11:53:38.113Z,1020.55
2017-12-04T11:54:48.096Z,1020.52
2017-12-04T11:55:57.557Z,1020.54
2017-12-04T11:57:07.536Z,1020.63
2017-12-04T11:58:17.253Z,1020.52
2017-12-04T11:59:26.976Z,1020.54
2017-12-04T12:00:36.968Z,1020.49
2017-12-04T12:01:46.958Z,1020.62
2017-12-04T12:02:56.147Z,1020.5
2017-12-04T12:04:05.597Z,1020.52
2017-12-04T12:05:15.361Z,1020.54
2017-12-04T12:06:25.229Z,1020.52
2017-12-04T12:07:35.227Z,1020.53
2017-12-04T12:08:44.945Z,1020.53
2017-12-04T12:09:54.668Z,1020.53
2017-12-04T12:11:04.646Z,1020.55
2017-12-04T12:12:14.101Z,1020.54
2017-12-04T12:13:24.077Z,1020.55
2017-12-04T12:14:33.263Z,1020.59
2017-12-04T12:15:42.976Z,1020.6
2017-12-04T12:16:52.785Z,1020.55
2017-12-04T12:18:02.777Z,1020.57
2017-12-04T12:19:11.960Z,1020.52
2017-12-04T12:20:21.690Z,1020.57
2017-12-04T12:21:31.412Z,1020.74
2017-12-04T12:22:40.866Z,1020.7
2017-12-04T12:23:50.390Z,1020.5
2017-12-04T12:25:00.104Z,1020.58
2017-12-04T12:26:10.104Z,1020.52
2017-12-04T12:27:19.921Z,1020.48
2017-12-04T12:28:29.730Z,1020.47
2017-12-04T12:29:39.635Z,1020.56
2017-12-04T12:30:49.346Z,1020.49
2017-12-04T12:32:00.178Z,1020.45
2017-12-04T12:33:10.664Z,1020.45
2017-12-04T12:34:20.759Z,1020.61
2017-12-04T12:35:30.590Z,1020.52
2017-12-04T12:36:40.584Z,1020.59
2017-12-04T12:37:50.567Z,1020.55
2017-12-04T12:39:00.288Z,1020.56
2017-12-04T12:40:10.295Z,1020.55
2017-12-04T12:41:20.282Z,1020.48
2017-12-04T12:42:30.310Z,1020.56
2017-12-04T12:43:39.864Z,1020.59
2017-12-04T12:44:49.591Z,1020.53
2017-12-04T12:45:59.310Z,1020.58
2017-12-04T12:47:08.765Z,1020.46
2017-12-04T12:48:18.753Z,1020.59
2017-12-04T12:49:28.682Z,1020.53
2017-12-04T12:50:38.138Z,1020.47
2017-12-04T12:51:47.859Z,1020.53
2017-12-04T12:52:57.838Z,1020.44
2017-12-04T12:54:07.596Z,1020.49
2017-12-04T12:55:17.198Z,1020.48
2017-12-04T12:56:26.653Z,1020.44
2017-12-04T12:57:36.397Z,1020.37
2017-12-04T12:58:46.114Z,1020.45
2017-12-04T12:59:56.101Z,1020.48
2017-12-04T13:01:05.554Z,1020.4
2017-12-04T13:02:15.281Z,1020.48
2017-12-04T13:03:24.737Z,1020.4
2017-12-04T13:04:34.889Z,1020.45
2017-12-04T13:05:44.392Z,1020.39
2017-12-04T13:06:54.107Z,1020.38
2017-12-04T13:08:04.510Z,1020.42
2017-12-04T13:09:14.662Z,1020.43
2017-12-04T13:10:24.381Z,1020.4
2017-12-04T13:11:34.309Z,1020.4
2017-12-04T13:12:44.316Z,1020.38
2017-12-04T13:13:54.036Z,1020.41
2017-12-04T13:15:03.778Z,1020.54
2017-12-04T13:16:13.493Z,1020.43
2017-12-04T13:17:23.066Z,1020.37
2017-12-04T13:18:32.796Z,1020.47
2017-12-04T13:19:42.806Z,1020.38
2017-12-04T13:20:52.532Z,1020.4
2017-12-04T13:22:02.286Z,1020.34
2017-12-04T13:23:12.388Z,1020.4
2017-12-04T13:24:22.374Z,1020.31
2017-12-04T13:25:32.102Z,1020.36
2017-12-04T13:26:41.559Z,1020.32
2017-12-04T13:27:51.553Z,1020.37
2017-12-04T13:29:01.290Z,1020.35
2017-12-04T13:30:11.360Z,1020.33
2017-12-04T13:31:21.076Z,1020.37
2017-12-04T13:32:30.933Z,1020.45
2017-12-04T13:33:40.681Z,1020.31
2017-12-04T13:34:50.404Z,1020.35
2017-12-04T13:36:00.402Z,1020.34
2017-12-04T13:37:10.145Z,1020.35
2017-12-04T13:38:20.139Z,1020.44
2017-12-04T13:39:30.322Z,1020.37
2017-12-04T13:40:39.781Z,1020.38
2017-12-04T13:41:49.789Z,1020.48
2017-12-04T13:42:59.606Z,1020.37
2017-12-04T13:44:09.102Z,1020.36
2017-12-04T13:45:19.082Z,1020.44
2017-12-04T13:46:29.064Z,1020.46
2017-12-04T13:47:39.059Z,1020.43
2017-12-04T13:48:49.052Z,1020.54
2017-12-04T13:49:58.506Z,1020.48
2017-12-04T13:51:07.962Z,1020.46
2017-12-04T13:52:17.703Z,1020.5
2017-12-04T13:53:27.428Z,1020.56
2017-12-04T13:54:37.151Z,1020.54
2017-12-04T13:55:47.139Z,1020.49
2017-12-04T13:56:57.133Z,1020.57
2017-12-04T13:58:07.131Z,1020.47
2017-12-04T13:59:16.850Z,1020.52
2017-12-04T14:00:26.849Z,1020.46
2017-12-04T14:01:36.875Z,1020.53
2017-12-04T14:02:46.413Z,1020.47
2017-12-04T14:03:55.904Z,1020.45
2017-12-04T14:05:05.885Z,1020.59
2017-12-04T14:06:15.919Z,1020.5
2017-12-04T14:07:25.901Z,1020.46